Time;durP1;ratioP1;P1;durP2;ratioP2;P2;SDS_P1;SDS_P2;PMS_P1;PMS_P2;Temp;Humidity;BMP_temperature;BMP_pressure;BME280_temperature;BME280_humidity;BME280_pressure;Samples;Min_cycle;Max_cycle;Signal;HPM_P1;HPM_P2
2023/11/11 00:01:16;;;;;;;2.70;1.10;;;6.10;99.90;;;;;;5012268;28;20226;-70
2023/11/11 00:03:41;;;;;;;2.77;1.40;;;6.10;99.90;;;;;;5011976;28;20250;-70
2023/11/11 00:06:07;;;;;;;1.43;1.20;;;6.10;99.90;;;;;;5012241;28;20446;-71
2023/11/11 00:08:36;;;;;;;2.03;1.50;;;6.10;99.90;;;;;;5012137;28;20187;-71
2023/11/11 00:11:02;;;;;;;2.93;1.97;;;6.10;99.90;;;;;;5012210;28;20426;-71
2023/11/11 00:13:27;;;;;;;2.50;1.73;;;6.20;99.90;;;;;;5011898;28;20429;-71
2023/11/11 00:15:53;;;;;;;1.93;1.57;;;6.20;99.90;;;;;;5012200;28;20421;-71
2023/11/11 00:18:19;;;;;;;2.40;1.30;;;6.10;99.90;;;;;;5011966;28;20202;-70
2023/11/11 00:20:48;;;;;;;4.53;1.97;;;6.10;99.90;;;;;;5010914;28;20244;-70
2023/11/11 00:23:14;;;;;;;2.47;1.40;;;6.10;99.90;;;;;;5011734;28;20353;-70
2023/11/11 00:25:43;;;;;;;1.70;1.50;;;6.10;99.90;;;;;;5012083;28;20410;-68
2023/11/11 00:28:10;;;;;;;2.80;1.63;;;6.10;99.90;;;;;;5012017;28;20437;-68
2023/11/11 00:30:36;;;;;;;1.63;1.53;;;6.00;99.90;;;;;;5015306;28;20771;-68
2023/11/11 00:33:01;;;;;;;3.90;1.10;;;6.00;99.90;;;;;;5015486;28;20428;-68
2023/11/11 00:35:27;;;;;;;4.80;1.30;;;6.00;99.90;;;;;;5015786;28;20182;-68
2023/11/11 00:37:53;;;;;;;5.30;1.10;;;6.00;99.90;;;;;;5015732;28;20823;-68
2023/11/11 00:40:20;;;;;;;2.50;1.10;;;6.00;99.90;;;;;;5015614;28;20221;-68
2023/11/11 00:42:45;;;;;;;3.10;1.57;;;6.00;99.90;;;;;;5015410;28;20595;-68
2023/11/11 00:45:13;;;;;;;2.60;1.30;;;6.00;99.90;;;;;;5015670;28;20456;-68
2023/11/11 00:47:38;;;;;;;1.10;1.00;;;6.10;99.90;;;;;;5014254;28;20175;-68
2023/11/11 00:50:05;;;;;;;2.80;1.30;;;6.10;99.90;;;;;;5015508;28;20499;-68
2023/11/11 00:52:33;;;;;;;1.93;1.40;;;6.10;99.90;;;;;;5015407;28;20167;-68
2023/11/11 00:54:59;;;;;;;2.60;1.50;;;6.10;99.90;;;;;;5015400;28;20428;-68
2023/11/11 00:57:25;;;;;;;1.00;0.90;;;6.10;99.90;;;;;;5015350;28;20935;-68
2023/11/11 00:59:50;;;;;;;1.17;1.07;;;6.10;99.90;;;;;;5015317;28;20433;-68
2023/11/11 01:02:16;;;;;;;2.73;1.10;;;6.20;99.90;;;;;;5015224;28;20211;-68
2023/11/11 01:04:41;;;;;;;4.40;1.73;;;6.20;99.90;;;;;;5014934;28;20543;-68
2023/11/11 01:07:07;;;;;;;2.00;1.10;;;6.10;99.90;;;;;;5015206;28;20167;-68
2023/11/11 01:09:33;;;;;;;1.07;1.00;;;6.20;99.90;;;;;;5015172;28;20194;-68
2023/11/11 01:11:58;;;;;;;2.20;1.20;;;6.10;99.90;;;;;;5015194;28;20201;-68
2023/11/11 01:14:24;;;;;;;1.07;0.97;;;6.20;99.90;;;;;;5014937;28;20516;-68
2023/11/11 01:16:50;;;;;;;1.17;1.07;;;6.20;99.90;;;;;;5015060;28;20197;-68
2023/11/11 01:19:15;;;;;;;1.20;1.10;;;6.30;99.90;;;;;;5014986;28;20214;-68
2023/11/11 01:21:41;;;;;;;0.87;0.87;;;6.30;99.90;;;;;;5014867;28;20473;-69
2023/11/11 01:24:07;;;;;;;0.80;0.80;;;6.30;99.90;;;;;;5014686;28;20171;-68
2023/11/11 01:26:32;;;;;;;1.20;1.10;;;6.30;99.90;;;;;;5013879;28;20540;-68
2023/11/11 01:28:58;;;;;;;0.97;0.97;;;6.40;99.90;;;;;;5014776;28;20444;-69
2023/11/11 01:31:24;;;;;;;4.63;0.83;;;6.50;99.90;;;;;;5014733;28;20181;-69
2023/11/11 01:33:50;;;;;;;1.10;1.00;;;6.50;99.90;;;;;;5014559;28;20167;-68
2023/11/11 01:36:15;;;;;;;2.20;0.90;;;6.40;99.90;;;;;;5014687;28;20167;-69
2023/11/11 01:38:41;;;;;;;1.60;0.70;;;6.50;99.90;;;;;;5014555;28;20191;-69
2023/11/11 01:41:06;;;;;;;0.60;0.60;;;6.50;99.90;;;;;;5014141;28;20273;-68
2023/11/11 01:43:32;;;;;;;0.57;0.50;;;6.50;99.90;;;;;;5014354;28;20240;-68
2023/11/11 01:46:05;;;;;;;0.70;0.70;;;6.50;99.90;;;;;;5014563;28;20317;-68
2023/11/11 01:48:34;;;;;;;0.70;0.63;;;6.50;99.90;;;;;;5014408;28;20449;-68
2023/11/11 01:51:00;;;;;;;1.10;0.60;;;6.50;99.90;;;;;;5014445;28;20446;-69
2023/11/11 01:53:26;;;;;;;1.33;0.77;;;6.50;99.90;;;;;;5014079;28;20496;-68
2023/11/11 01:55:51;;;;;;;0.87;0.70;;;6.60;99.90;;;;;;5014336;28;20511;-68
2023/11/11 01:58:17;;;;;;;0.70;0.60;;;6.60;99.90;;;;;;5014082;28;20437;-68
2023/11/11 02:00:43;;;;;;;1.07;0.70;;;6.60;99.90;;;;;;5014171;28;20198;-68
2023/11/11 02:03:11;;;;;;;0.60;0.60;;;6.50;99.90;;;;;;5013900;28;20254;-68
2023/11/11 02:05:37;;;;;;;0.67;0.67;;;6.50;99.90;;;;;;5014098;28;20767;-69
2023/11/11 02:08:05;;;;;;;0.80;0.80;;;6.60;99.90;;;;;;5013983;28;20469;-69
2023/11/11 02:10:32;;;;;;;0.77;0.70;;;6.50;99.90;;;;;;5014121;28;20177;-68
2023/11/11 02:12:59;;;;;;;0.87;0.60;;;6.50;99.90;;;;;;5013712;28;20525;-68
2023/11/11 02:15:26;;;;;;;1.13;0.70;;;6.50;99.90;;;;;;5013920;28;20422;-68
2023/11/11 02:17:59;;;;;;;2.33;0.73;;;6.50;99.90;;;;;;5013658;28;20505;-68
2023/11/11 02:20:25;;;;;;;2.07;0.80;;;6.50;99.90;;;;;;5013795;28;20468;-68
2023/11/11 02:22:51;;;;;;;0.90;0.67;;;6.50;99.90;;;;;;5013508;28;20418;-68
2023/11/11 02:25:18;;;;;;;1.80;0.50;;;6.50;99.90;;;;;;5013719;28;20563;-68
2023/11/11 02:27:45;;;;;;;2.00;0.70;;;6.50;99.90;;;;;;5013832;28;20485;-69
2023/11/11 02:30:11;;;;;;;0.70;0.60;;;6.40;99.90;;;;;;5013662;28;20505;-69
2023/11/11 02:32:37;;;;;;;0.60;0.50;;;6.40;99.90;;;;;;5013368;28;20580;-68
2023/11/11 02:35:03;;;;;;;0.83;0.73;;;6.40;99.90;;;;;;5013657;28;20183;-68
2023/11/11 02:37:29;;;;;;;0.63;0.50;;;6.40;99.90;;;;;;5013604;28;20429;-68
2023/11/11 02:39:54;;;;;;;1.47;0.70;;;6.40;99.90;;;;;;5013483;28;20445;-68
2023/11/11 02:42:20;;;;;;;0.50;0.40;;;6.20;99.90;;;;;;5013296;28;20191;-67
2023/11/11 02:44:45;;;;;;;0.50;0.50;;;6.10;99.90;;;;;;5013162;28;20229;-68
2023/11/11 02:47:11;;;;;;;0.60;0.50;;;6.10;99.90;;;;;;5013372;28;20223;-68
2023/11/11 02:49:36;;;;;;;1.93;0.50;;;6.00;99.90;;;;;;5013276;28;20563;-68
2023/11/11 02:52:02;;;;;;;0.60;0.50;;;6.00;99.90;;;;;;5012574;28;20179;-68
2023/11/11 02:54:27;;;;;;;2.20;0.73;;;6.00;99.90;;;;;;5012925;28;20521;-68
2023/11/11 02:56:53;;;;;;;1.07;0.60;;;5.90;99.90;;;;;;5013221;28;20174;-68
2023/11/11 02:59:18;;;;;;;2.10;1.10;;;5.90;99.90;;;;;;5013151;28;20537;-68
2023/11/11 03:01:44;;;;;;;2.00;1.10;;;6.00;99.90;;;;;;5013139;28;20199;-68
2023/11/11 03:04:11;;;;;;;0.57;0.57;;;6.00;99.90;;;;;;5012817;28;20611;-68
2023/11/11 03:06:43;;;;;;;1.10;0.73;;;6.00;99.90;;;;;;5013178;28;20167;-68
2023/11/11 03:09:11;;;;;;;1.23;1.10;;;6.10;99.90;;;;;;5012839;28;20437;-68
2023/11/11 03:11:37;;;;;;;0.93;0.90;;;6.10;99.90;;;;;;5013026;28;20421;-68
2023/11/11 03:14:03;;;;;;;1.23;1.10;;;6.10;99.90;;;;;;5012649;28;20425;-68
2023/11/11 03:16:36;;;;;;;0.80;0.80;;;6.20;99.90;;;;;;5012956;28;20594;-68
2023/11/11 03:19:03;;;;;;;1.20;1.10;;;6.20;99.90;;;;;;5012625;28;20458;-68
2023/11/11 03:21:29;;;;;;;3.53;1.33;;;6.30;99.90;;;;;;5012817;28;20556;-68
2023/11/11 03:23:55;;;;;;;1.27;1.13;;;6.30;99.90;;;;;;5012468;28;20501;-68
2023/11/11 03:26:23;;;;;;;1.87;1.00;;;6.40;99.90;;;;;;5012777;28;20580;-68
2023/11/11 03:28:49;;;;;;;1.00;0.90;;;6.40;99.90;;;;;;5012685;28;20183;-68
2023/11/11 03:31:15;;;;;;;1.27;1.17;;;6.40;99.90;;;;;;5012648;28;20426;-69
2023/11/11 03:33:41;;;;;;;1.40;0.80;;;6.30;99.90;;;;;;5012309;28;20790;-68
2023/11/11 03:36:06;;;;;;;1.50;1.40;;;6.40;99.90;;;;;;5012505;28;20930;-68
2023/11/11 03:38:32;;;;;;;2.00;1.23;;;6.40;99.90;;;;;;5012382;28;20471;-68
2023/11/11 03:40:57;;;;;;;1.27;1.17;;;6.40;99.90;;;;;;5012471;28;20195;-68
2023/11/11 03:43:23;;;;;;;1.10;1.00;;;6.40;99.90;;;;;;5012300;28;20261;-68
2023/11/11 03:45:49;;;;;;;1.10;1.00;;;6.40;99.90;;;;;;5012519;28;20159;-67
2023/11/11 03:48:15;;;;;;;1.63;1.00;;;6.40;99.90;;;;;;5012318;28;20433;-68
2023/11/11 03:50:40;;;;;;;1.30;1.20;;;6.30;99.90;;;;;;5012304;28;20179;-68
2023/11/11 03:53:06;;;;;;;1.23;1.13;;;6.40;99.90;;;;;;5011965;28;20542;-69
2023/11/11 03:55:32;;;;;;;1.20;1.10;;;6.30;99.90;;;;;;5012437;28;20171;-68
2023/11/11 03:57:57;;;;;;;5.03;1.23;;;6.30;99.90;;;;;;5012296;28;20229;-67
2023/11/11 04:00:23;;;;;;;1.70;0.90;;;6.40;99.90;;;;;;5012354;28;20265;-68
2023/11/11 04:02:49;;;;;;;1.07;1.00;;;6.40;99.90;;;;;;5012887;28;20668;-68
2023/11/11 04:05:15;;;;;;;2.67;0.90;;;6.40;99.90;;;;;;5018773;28;20170;-68
2023/11/11 04:07:40;;;;;;;1.87;1.10;;;6.40;99.90;;;;;;5018740;28;20174;-68
2023/11/11 04:10:07;;;;;;;1.20;1.10;;;6.40;99.90;;;;;;5018733;28;20851;-68
2023/11/11 04:12:32;;;;;;;0.60;0.60;;;6.40;99.90;;;;;;5018571;28;20170;-68
2023/11/11 04:14:59;;;;;;;1.00;0.90;;;6.30;99.90;;;;;;5018673;28;20432;-68
2023/11/11 04:17:24;;;;;;;1.23;0.90;;;6.30;99.90;;;;;;5018581;28;20178;-71
2023/11/11 04:19:50;;;;;;;1.03;0.90;;;6.40;99.90;;;;;;5018527;28;20469;-71
2023/11/11 04:22:15;;;;;;;1.30;1.20;;;6.20;99.90;;;;;;5018596;28;20198;-71
2023/11/11 04:24:41;;;;;;;1.20;1.10;;;6.30;99.90;;;;;;5018349;28;20175;-71
2023/11/11 04:27:08;;;;;;;2.03;1.10;;;6.20;99.90;;;;;;5018606;28;20167;-70
2023/11/11 04:29:34;;;;;;;3.30;1.30;;;6.20;99.90;;;;;;5018550;28;20757;-70
2023/11/11 04:32:00;;;;;;;1.10;1.00;;;6.20;99.90;;;;;;5018535;28;20413;-71
2023/11/11 04:34:28;;;;;;;6.40;1.13;;;6.20;99.90;;;;;;5018276;28;20596;-71
2023/11/11 04:36:56;;;;;;;1.73;1.17;;;6.30;99.90;;;;;;5018562;28;20528;-71
2023/11/11 04:39:22;;;;;;;2.33;1.60;;;6.20;99.90;;;;;;5018455;28;20452;-71
2023/11/11 04:41:48;;;;;;;1.80;1.33;;;6.30;99.90;;;;;;5018332;28;20457;-71
2023/11/11 04:44:13;;;;;;;3.23;1.33;;;6.30;99.90;;;;;;5018234;28;20174;-70
2023/11/11 04:46:39;;;;;;;3.33;1.50;;;6.30;99.90;;;;;;5018450;28;20249;-71
2023/11/11 04:49:05;;;;;;;3.90;1.43;;;6.20;99.90;;;;;;5018355;28;20580;-68
2023/11/11 04:51:30;;;;;;;2.00;1.90;;;6.20;99.90;;;;;;5018314;28;20183;-68
2023/11/11 04:53:56;;;;;;;2.10;1.90;;;6.20;99.90;;;;;;5018110;28;20177;-68
2023/11/11 04:56:21;;;;;;;3.30;2.30;;;6.20;99.90;;;;;;5018679;28;20256;-68
2023/11/11 04:58:47;;;;;;;3.37;2.27;;;6.20;99.90;;;;;;5018274;28;20191;-68
2023/11/11 05:01:13;;;;;;;1.83;1.70;;;6.20;99.90;;;;;;5018147;28;20199;-68
2023/11/11 05:03:40;;;;;;;2.63;1.40;;;6.20;99.90;;;;;;5017968;28;20167;-68
2023/11/11 05:06:06;;;;;;;1.83;1.73;;;6.20;99.90;;;;;;5018285;28;20185;-67
2023/11/11 05:08:31;;;;;;;3.00;1.60;;;6.20;99.90;;;;;;5018322;28;20468;-71
2023/11/11 05:10:57;;;;;;;1.70;1.60;;;6.20;99.90;;;;;;5018373;28;20461;-71
2023/11/11 05:13:23;;;;;;;2.33;1.80;;;6.20;99.90;;;;;;5017976;28;20269;-71
2023/11/11 05:15:59;;;;;;;2.17;1.87;;;6.30;99.90;;;;;;5014933;28;20186;-71
2023/11/11 05:18:25;;;;;;;1.73;1.63;;;6.30;99.90;;;;;;5015347;28;20460;-71
2023/11/11 05:20:51;;;;;;;2.53;2.03;;;6.30;99.90;;;;;;5014973;28;20453;-68
2023/11/11 05:23:17;;;;;;;2.00;1.80;;;6.20;99.90;;;;;;5014687;28;20425;-68
2023/11/11 05:25:42;;;;;;;3.80;2.00;;;6.40;99.90;;;;;;5014900;28;20170;-68
2023/11/11 05:28:08;;;;;;;1.63;1.53;;;6.30;99.90;;;;;;5014826;28;20195;-68
2023/11/11 05:30:34;;;;;;;1.73;1.60;;;6.30;99.90;;;;;;5014775;28;20655;-68
2023/11/11 05:33:00;;;;;;;4.07;1.80;;;6.30;99.90;;;;;;5014464;28;20410;-68
2023/11/11 05:35:25;;;;;;;1.53;1.43;;;6.40;99.90;;;;;;5014792;28;20182;-68
2023/11/11 05:37:50;;;;;;;3.90;1.77;;;6.30;99.90;;;;;;5014646;28;20171;-68
2023/11/11 05:40:18;;;;;;;2.27;2.07;;;6.30;99.90;;;;;;5014659;28;20175;-68
2023/11/11 05:42:46;;;;;;;2.30;2.20;;;6.30;99.90;;;;;;5014189;28;20198;-68
2023/11/11 05:45:13;;;;;;;3.60;2.30;;;6.30;99.90;;;;;;5014488;28;20414;-68
2023/11/11 05:47:38;;;;;;;3.73;2.37;;;6.30;99.90;;;;;;5014432;28;20834;-68
2023/11/11 05:50:06;;;;;;;2.10;1.83;;;6.20;99.90;;;;;;5014353;28;20468;-68
2023/11/11 05:52:32;;;;;;;2.33;2.13;;;6.20;99.90;;;;;;5014245;28;20188;-68
2023/11/11 05:54:57;;;;;;;2.27;2.07;;;6.10;99.90;;;;;;5014255;28;20818;-68
2023/11/11 05:57:23;;;;;;;2.50;2.30;;;6.00;99.90;;;;;;5014436;28;20195;-69
2023/11/11 05:59:48;;;;;;;3.40;3.00;;;5.90;99.90;;;;;;5014147;28;20205;-68
2023/11/11 06:02:15;;;;;;;2.83;2.50;;;5.90;99.90;;;;;;5014593;28;20191;-71
2023/11/11 06:04:41;;;;;;;4.57;3.00;;;5.80;99.90;;;;;;5013959;28;20254;-71
2023/11/11 06:07:07;;;;;;;2.93;2.13;;;5.80;99.90;;;;;;5014225;28;20857;-71
2023/11/11 06:09:35;;;;;;;2.70;2.50;;;5.80;99.90;;;;;;5014068;28;20186;-68
2023/11/11 06:12:01;;;;;;;2.93;2.63;;;5.80;99.90;;;;;;5014117;28;20727;-68
2023/11/11 06:14:27;;;;;;;3.07;2.57;;;5.80;99.90;;;;;;5013633;28;20460;-68
2023/11/11 06:16:52;;;;;;;2.83;2.40;;;5.80;99.90;;;;;;5013946;28;20659;-68
2023/11/11 06:19:19;;;;;;;2.60;2.30;;;5.80;99.90;;;;;;5013727;28;20203;-68
2023/11/11 06:21:46;;;;;;;3.00;2.70;;;5.80;99.90;;;;;;5013785;28;20217;-68
2023/11/11 06:24:12;;;;;;;7.63;3.30;;;5.80;99.90;;;;;;5013719;28;20933;-68
2023/11/11 06:26:38;;;;;;;2.30;1.90;;;5.90;99.90;;;;;;5012787;28;20418;-70
2023/11/11 06:29:06;;;;;;;2.80;2.30;;;5.80;99.90;;;;;;5013672;28;20457;-70
2023/11/11 06:31:32;;;;;;;3.40;2.63;;;5.80;99.90;;;;;;5013683;28;20163;-71
2023/11/11 06:33:58;;;;;;;2.87;2.27;;;5.80;99.90;;;;;;5013374;28;20918;-68
2023/11/11 06:36:24;;;;;;;6.70;2.90;;;5.80;99.90;;;;;;5013612;28;20961;-68
2023/11/11 06:38:50;;;;;;;6.10;2.60;;;5.80;99.90;;;;;;5013501;28;20472;-68
2023/11/11 06:41:17;;;;;;;2.30;2.10;;;5.80;99.90;;;;;;5013507;28;20277;-68
2023/11/11 06:43:42;;;;;;;2.60;2.10;;;5.80;99.90;;;;;;5013197;28;20179;-68
2023/11/11 06:46:08;;;;;;;4.57;2.87;;;5.70;99.90;;;;;;5013428;28;20418;-68
2023/11/11 06:48:34;;;;;;;2.80;2.53;;;5.80;99.90;;;;;;5013316;28;20191;-68
2023/11/11 06:51:00;;;;;;;1.93;1.83;;;5.80;99.90;;;;;;5013281;28;20680;-68
2023/11/11 06:53:26;;;;;;;3.53;2.47;;;5.90;99.90;;;;;;5012964;28;20418;-68
2023/11/11 06:55:52;;;;;;;4.93;2.50;;;5.90;99.90;;;;;;5013247;28;20977;-68
2023/11/11 06:58:18;;;;;;;3.23;1.70;;;5.90;99.90;;;;;;5013104;28;20198;-69
2023/11/11 07:00:44;;;;;;;2.30;2.03;;;5.90;99.90;;;;;;5012959;28;20655;-68
2023/11/11 07:03:10;;;;;;;1.83;1.73;;;6.00;99.90;;;;;;5012893;28;20254;-68
2023/11/11 07:05:36;;;;;;;1.83;1.63;;;6.00;99.90;;;;;;5013087;28;20847;-68
2023/11/11 07:08:02;;;;;;;2.00;1.60;;;6.00;99.90;;;;;;5013001;28;20938;-68
2023/11/11 07:10:30;;;;;;;1.83;1.73;;;6.00;99.90;;;;;;5013047;28;20178;-68
2023/11/11 07:12:56;;;;;;;3.10;1.40;;;6.00;99.90;;;;;;5012553;28;20456;-68
2023/11/11 07:15:21;;;;;;;4.30;1.23;;;6.00;99.90;;;;;;5012872;28;20430;-68
2023/11/11 07:17:47;;;;;;;2.50;1.60;;;6.10;99.90;;;;;;5012745;28;20174;-68
2023/11/11 07:20:12;;;;;;;1.90;1.33;;;6.20;99.90;;;;;;5012818;28;20179;-68
2023/11/11 07:22:38;;;;;;;1.33;1.23;;;6.20;99.90;;;;;;5012481;28;20566;-68
2023/11/11 07:25:05;;;;;;;2.77;1.27;;;6.20;99.90;;;;;;5012809;28;20175;-68
2023/11/11 07:27:33;;;;;;;1.43;1.33;;;6.20;99.90;;;;;;5012695;28;20416;-68
2023/11/11 07:29:59;;;;;;;1.50;1.37;;;6.20;99.90;;;;;;5012605;28;20492;-68
2023/11/11 07:32:24;;;;;;;3.00;1.40;;;6.20;99.90;;;;;;5012615;28;20823;-68
2023/11/11 07:34:50;;;;;;;1.50;1.40;;;6.20;99.90;;;;;;5012331;28;20594;-68
2023/11/11 07:37:15;;;;;;;5.63;1.70;;;6.30;99.90;;;;;;5012444;28;20171;-68
2023/11/11 07:39:41;;;;;;;1.83;1.73;;;6.20;99.90;;;;;;5012273;28;20905;-68
2023/11/11 07:42:09;;;;;;;1.30;1.20;;;6.20;99.90;;;;;;5012408;28;20580;-68
2023/11/11 07:44:38;;;;;;;1.33;1.23;;;6.30;99.90;;;;;;5012156;28;20640;-68
2023/11/11 07:47:07;;;;;;;4.63;1.30;;;6.20;99.90;;;;;;5012458;28;20541;-68
2023/11/11 07:49:39;;;;;;;2.03;1.83;;;6.20;99.90;;;;;;5012440;28;20954;-68
2023/11/11 07:52:05;;;;;;;3.60;1.60;;;6.20;99.90;;;;;;5012344;28;20440;-67
2023/11/11 07:54:31;;;;;;;1.83;1.37;;;6.30;99.90;;;;;;5011991;28;20445;-68
2023/11/11 07:56:57;;;;;;;1.60;1.50;;;6.30;99.90;;;;;;5012376;28;20461;-68
2023/11/11 07:59:23;;;;;;;2.50;2.00;;;6.30;99.90;;;;;;5012229;28;20222;-68
2023/11/11 08:01:49;;;;;;;1.57;1.47;;;6.30;99.90;;;;;;5012176;28;20465;-68
2023/11/11 08:04:14;;;;;;;2.80;1.70;;;6.40;99.90;;;;;;5011968;28;20167;-68
2023/11/11 08:06:42;;;;;;;1.60;1.50;;;6.40;99.90;;;;;;5012230;28;20177;-68
2023/11/11 08:09:10;;;;;;;2.07;1.93;;;6.50;99.90;;;;;;5012159;28;20193;-69
2023/11/11 08:11:36;;;;;;;3.20;2.37;;;6.80;99.90;;;;;;5012189;28;20417;-68
2023/11/11 08:14:02;;;;;;;2.47;2.23;;;7.60;99.90;;;;;;5011790;28;20505;-68
2023/11/11 08:16:29;;;;;;;3.30;2.07;;;8.30;99.90;;;;;;5012167;28;20422;-68
2023/11/11 08:18:54;;;;;;;2.40;1.53;;;8.80;99.90;;;;;;5011877;28;21007;-68
2023/11/11 08:21:25;;;;;;;3.03;1.43;;;9.50;99.90;;;;;;5012004;28;20450;-69
2023/11/11 08:23:50;;;;;;;1.67;1.43;;;10.30;99.90;;;;;;5011776;28;20175;-69
2023/11/11 08:26:16;;;;;;;2.27;1.67;;;10.70;99.90;;;;;;5012069;28;20417;-69
2023/11/11 08:28:41;;;;;;;2.13;1.90;;;10.50;99.90;;;;;;5011895;28;20202;-69
2023/11/11 08:31:07;;;;;;;2.47;1.67;;;10.30;99.90;;;;;;5012165;28;20179;-69
2023/11/11 08:33:32;;;;;;;3.03;2.13;;;10.00;99.90;;;;;;5011709;28;20171;-68
2023/11/11 08:35:58;;;;;;;4.17;1.80;;;10.00;99.90;;;;;;5012014;28;20202;-68
2023/11/11 08:38:25;;;;;;;4.57;2.90;;;9.60;99.90;;;;;;5011813;28;20203;-68
2023/11/11 08:40:51;;;;;;;2.30;2.10;;;9.00;99.90;;;;;;5011885;28;20174;-68
2023/11/11 08:43:16;;;;;;;2.50;1.67;;;8.60;99.90;;;;;;5011640;28;20418;-68
2023/11/11 08:45:42;;;;;;;3.43;2.10;;;8.20;99.90;;;;;;5011975;28;20216;-68
2023/11/11 08:48:08;;;;;;;2.50;2.30;;;7.90;99.90;;;;;;5011752;28;20289;-68
2023/11/11 08:50:33;;;;;;;2.50;2.30;;;7.70;99.90;;;;;;5013523;28;20175;-68
2023/11/11 08:52:59;;;;;;;5.40;3.37;;;7.80;99.90;;;;;;5015205;28;20179;-68
2023/11/11 08:55:25;;;;;;;2.33;1.90;;;8.40;99.90;;;;;;5015467;28;20167;-68
2023/11/11 08:57:51;;;;;;;5.53;2.10;;;9.30;99.90;;;;;;5015363;28;20194;-68
2023/11/11 09:00:16;;;;;;;2.97;2.67;;;9.70;99.90;;;;;;5015436;28;20414;-68
2023/11/11 09:02:42;;;;;;;2.30;1.97;;;9.40;99.90;;;;;;5015121;28;20741;-68
2023/11/11 09:05:09;;;;;;;3.83;2.40;;;9.00;99.90;;;;;;5015292;28;20171;-70
2023/11/11 09:07:35;;;;;;;2.23;2.03;;;8.80;99.90;;;;;;5015261;28;20163;-68
2023/11/11 09:10:03;;;;;;;2.80;2.30;;;8.60;99.90;;;;;;5015199;28;20528;-68
2023/11/11 09:12:29;;;;;;;3.10;2.27;;;8.30;99.90;;;;;;5015088;28;20468;-68
2023/11/11 09:14:55;;;;;;;2.47;2.30;;;8.00;99.90;;;;;;5014893;28;20418;-68
2023/11/11 09:17:24;;;;;;;3.10;2.77;;;7.50;99.90;;;;;;5015049;28;20429;-68
2023/11/11 09:19:50;;;;;;;3.20;2.60;;;7.20;99.90;;;;;;5014888;28;20457;-68
2023/11/11 09:22:16;;;;;;;3.00;2.63;;;7.10;99.90;;;;;;5014882;28;20457;-68
2023/11/11 09:24:41;;;;;;;4.23;2.57;;;7.00;99.90;;;;;;5014861;28;20429;-67
2023/11/11 09:27:07;;;;;;;2.80;2.60;;;6.90;99.90;;;;;;5014882;28;20586;-68
2023/11/11 09:29:33;;;;;;;3.20;2.90;;;7.00;99.90;;;;;;5014807;28;20281;-68
2023/11/11 09:31:58;;;;;;;4.00;3.60;;;7.00;99.90;;;;;;5014808;28;20250;-68
2023/11/11 09:34:24;;;;;;;2.87;2.33;;;6.90;99.90;;;;;;5014445;28;20568;-68
2023/11/11 09:36:50;;;;;;;4.87;4.47;;;7.20;99.90;;;;;;5014681;28;20532;-68
2023/11/11 09:39:17;;;;;;;2.83;2.53;;;7.70;99.90;;;;;;5014621;28;20194;-67
2023/11/11 09:41:42;;;;;;;5.97;2.40;;;8.20;99.90;;;;;;5014498;28;20195;-68
2023/11/11 09:44:09;;;;;;;2.97;1.90;;;8.20;99.90;;;;;;5014318;28;20917;-68
2023/11/11 09:46:53;;;;;;;2.07;1.87;;;8.10;99.90;;;;;;5014622;28;20177;-69
2023/11/11 09:49:19;;;;;;;3.40;1.90;;;8.80;99.90;;;;;;5014538;28;20488;-69
2023/11/11 09:51:47;;;;;;;2.80;1.73;;;10.60;99.90;;;;;;5014456;28;20422;-69
2023/11/11 09:54:13;;;;;;;2.07;1.67;;;12.70;99.90;;;;;;5014141;28;20428;-69
2023/11/11 09:56:42;;;;;;;2.23;1.50;;;13.90;99.90;;;;;;5014351;28;20422;-69
2023/11/11 09:59:12;;;;;;;3.27;1.60;;;15.10;99.90;;;;;;5014541;28;20683;-69
2023/11/11 10:01:39;;;;;;;3.17;1.70;;;15.50;99.90;;;;;;5013810;28;20445;-69
2023/11/11 10:04:06;;;;;;;1.97;1.87;;;15.30;99.90;;;;;;5013962;28;20813;-69
2023/11/11 10:06:32;;;;;;;1.80;1.70;;;15.90;99.90;;;;;;5014138;28;20417;-69
2023/11/11 10:08:58;;;;;;;2.63;2.17;;;15.70;99.90;;;;;;5014016;28;20445;-69
2023/11/11 10:11:25;;;;;;;2.17;1.53;;;14.50;99.90;;;;;;5014064;28;20418;-68
2023/11/11 10:13:54;;;;;;;4.50;1.70;;;13.30;99.90;;;;;;5013761;28;20479;-68
2023/11/11 10:16:25;;;;;;;2.00;1.80;;;11.80;99.90;;;;;;5014010;28;20429;-68
2023/11/11 10:18:50;;;;;;;3.83;1.80;;;10.90;99.90;;;;;;5013809;28;20552;-68
2023/11/11 10:21:16;;;;;;;2.17;1.50;;;10.40;99.90;;;;;;5013803;28;20552;-68
2023/11/11 10:23:45;;;;;;;2.03;1.60;;;10.10;99.90;;;;;;5012221;28;20429;-68
2023/11/11 10:26:11;;;;;;;1.83;1.73;;;10.20;99.90;;;;;;5013802;28;20488;-68
2023/11/11 10:28:36;;;;;;;2.40;2.20;;;10.20;99.90;;;;;;5013612;28;20529;-68
2023/11/11 10:31:06;;;;;;;13.97;11.37;;;10.00;99.90;;;;;;5013739;28;20258;-68
2023/11/11 10:33:32;;;;;;;2.53;2.33;;;10.10;99.90;;;;;;5013427;28;20228;-68
2023/11/11 10:35:57;;;;;;;2.40;1.80;;;10.00;99.90;;;;;;5013634;28;20516;-68
2023/11/11 10:38:23;;;;;;;1.70;1.60;;;10.10;99.90;;;;;;5013598;28;20213;-69
2023/11/11 10:40:48;;;;;;;1.73;1.40;;;9.90;99.90;;;;;;5013408;28;20186;-68
2023/11/11 10:43:14;;;;;;;1.60;1.50;;;9.50;99.90;;;;;;5013212;28;20262;-68
2023/11/11 10:45:41;;;;;;;3.47;1.73;;;9.50;99.90;;;;;;5013455;28;20262;-68
2023/11/11 10:48:07;;;;;;;1.63;1.53;;;9.30;99.90;;;;;;5013398;28;20500;-68
2023/11/11 10:50:34;;;;;;;2.07;1.93;;;9.20;99.90;;;;;;5013323;28;20421;-68
2023/11/11 10:53:02;;;;;;;2.90;2.10;;;9.40;99.90;;;;;;5013055;28;20435;-68
2023/11/11 10:55:30;;;;;;;2.77;2.10;;;9.90;99.90;;;;;;5013296;28;20422;-68
2023/11/11 10:57:57;;;;;;;3.10;2.60;;;9.90;99.90;;;;;;5013183;28;20460;-69
2023/11/11 11:00:24;;;;;;;4.30;3.90;;;10.10;99.90;;;;;;5013311;28;20414;-68
2023/11/11 11:02:53;;;;;;;7.23;3.70;;;10.40;99.90;;;;;;5012857;28;20584;-68
2023/11/11 11:05:35;;;;;;;5.03;2.10;;;10.20;99.90;;;;;;5013048;28;20418;-68
2023/11/11 11:08:15;;;;;;;1.70;1.60;;;9.80;99.90;;;;;;5013017;28;20424;-68
2023/11/11 11:11:04;;;;;;;2.07;1.43;;;9.60;99.90;;;;;;5013052;28;20969;-68
2023/11/11 11:13:31;;;;;;;2.60;1.50;;;9.20;99.90;;;;;;5012116;28;20413;-68
2023/11/11 11:15:57;;;;;;;1.77;1.67;;;8.90;99.90;;;;;;5012925;28;20440;-68
2023/11/11 11:18:23;;;;;;;8.50;2.80;;;8.90;99.90;;;;;;5013197;28;20445;-68
2023/11/11 11:20:52;;;;;;;1.43;1.33;;;8.90;99.90;;;;;;5012759;28;20241;-68
2023/11/11 11:23:19;;;;;;;2.10;1.37;;;8.80;99.90;;;;;;5012467;28;20422;-68
2023/11/11 11:25:45;;;;;;;2.13;1.20;;;8.70;99.90;;;;;;5012774;28;20410;-68
2023/11/11 11:28:16;;;;;;;1.60;1.40;;;8.60;99.90;;;;;;5012728;28;20454;-68
2023/11/11 11:30:50;;;;;;;1.90;1.70;;;8.50;99.90;;;;;;5012750;28;20171;-68
2023/11/11 11:33:18;;;;;;;2.73;1.37;;;8.60;99.90;;;;;;5012253;28;20426;-69
2023/11/11 11:35:48;;;;;;;1.40;1.30;;;9.30;99.90;;;;;;5012652;28;20476;-68
2023/11/11 11:38:34;;;;;;;1.63;1.53;;;12.50;99.90;;;;;;5012542;28;20442;-69
2023/11/11 11:41:09;;;;;;;1.37;1.27;;;14.90;99.90;;;;;;5012519;28;20414;-69
2023/11/11 11:43:36;;;;;;;2.23;2.03;;;16.90;95.50;;;;;;5012328;28;20422;-68
2023/11/11 11:46:02;;;;;;;2.10;1.60;;;17.00;92.30;;;;;;5012446;28;20418;-68
2023/11/11 11:48:33;;;;;;;2.53;1.33;;;15.20;93.50;;;;;;5012341;28;20450;-68
2023/11/11 11:51:12;;;;;;;2.20;2.00;;;13.70;98.60;;;;;;5012472;28;20971;-69
2023/11/11 11:53:41;;;;;;;2.57;1.80;;;13.30;99.90;;;;;;5012174;28;20409;-69
2023/11/11 11:56:07;;;;;;;1.77;1.67;;;15.90;96.30;;;;;;5012329;28;20421;-69
2023/11/11 11:58:46;;;;;;;1.60;1.50;;;18.00;88.20;;;;;;5012282;28;20469;-69
2023/11/11 12:01:25;;;;;;;2.20;1.53;;;19.20;81.10;;;;;;5012275;28;20456;-69
2023/11/11 12:03:51;;;;;;;2.20;1.50;;;19.20;72.70;;;;;;5012048;28;20421;-69
2023/11/11 12:06:18;;;;;;;3.20;2.17;;;18.10;74.60;;;;;;5012190;28;20977;-69
2023/11/11 12:08:49;;;;;;;2.03;1.87;;;16.30;79.10;;;;;;5011584;28;20441;-68
2023/11/11 12:11:23;;;;;;;2.33;1.80;;;14.20;87.20;;;;;;5012204;28;20973;-68
2023/11/11 12:13:50;;;;;;;2.03;1.80;;;13.10;94.00;;;;;;5011951;28;20425;-68
2023/11/11 12:16:17;;;;;;;1.70;1.60;;;12.30;98.10;;;;;;5012092;28;20501;-68
2023/11/11 12:18:42;;;;;;;2.10;2.00;;;12.30;99.90;;;;;;5011958;28;20813;-69
2023/11/11 12:21:08;;;;;;;2.00;1.80;;;11.90;99.90;;;;;;5012029;28;20475;-68
2023/11/11 12:23:34;;;;;;;2.27;1.60;;;11.40;99.90;;;;;;5011919;28;20179;-68
2023/11/11 12:26:01;;;;;;;1.63;1.53;;;11.00;99.90;;;;;;5014828;28;20183;-68
2023/11/11 12:28:29;;;;;;;3.80;1.60;;;10.80;99.90;;;;;;5015990;28;20191;-68
2023/11/11 12:31:03;;;;;;;2.27;1.63;;;11.00;99.90;;;;;;5015922;28;20406;-68
2023/11/11 12:33:29;;;;;;;1.80;1.70;;;11.40;99.90;;;;;;5015686;28;21038;-68
2023/11/11 12:35:55;;;;;;;1.97;1.77;;;13.00;99.90;;;;;;5015836;28;20459;-68
2023/11/11 12:38:27;;;;;;;1.40;1.30;;;14.00;98.00;;;;;;5015758;28;20520;-68
2023/11/11 12:41:00;;;;;;;2.93;2.63;;;13.30;97.10;;;;;;5015722;28;20198;-68
2023/11/11 12:43:26;;;;;;;2.30;1.83;;;12.70;98.10;;;;;;5015392;28;20418;-68
2023/11/11 12:45:59;;;;;;;2.40;1.90;;;12.00;99.90;;;;;;5015670;28;20767;-68
2023/11/11 12:48:29;;;;;;;2.50;1.90;;;11.70;99.90;;;;;;5015677;28;20555;-68
2023/11/11 12:50:54;;;;;;;1.60;1.50;;;11.70;99.90;;;;;;5015683;28;20489;-68
2023/11/11 12:53:20;;;;;;;2.00;1.80;;;11.60;99.90;;;;;;5015324;28;20421;-68